createdAt,value
2023-04-07T00:00:28.040Z,96956.88
2023-04-07T00:02:54.509Z,96954.25
2023-04-07T00:05:21.219Z,96953.63
2023-04-07T00:07:55.658Z,96947.59
2023-04-07T00:10:23.547Z,96951.22
2023-04-07T00:12:49.992Z,96939.94
2023-04-07T00:15:16.539Z,96942.75
2023-04-07T00:17:43.153Z,96945.75
2023-04-07T00:20:10.042Z,96944.50
2023-04-07T00:22:36.525Z,96937.66
2023-04-07T00:25:03.162Z,96935.03
2023-04-07T00:27:29.584Z,96940.69
2023-04-07T00:29:56.052Z,96928.78
2023-04-07T00:32:23.106Z,96923.75
2023-04-07T00:34:49.739Z,96915.03
2023-04-07T00:37:16.120Z,96919.63
2023-04-07T00:39:42.532Z,96916.78
2023-04-07T00:42:08.893Z,96920.00
2023-04-07T00:44:35.419Z,96907.91
2023-04-07T00:47:02.088Z,96911.53
2023-04-07T00:49:28.857Z,96899.00
2023-04-07T00:51:56.147Z,96897.41
2023-04-07T00:54:24.427Z,96893.31
2023-04-07T00:56:53.627Z,96892.91
2023-04-07T00:59:21.872Z,96884.03
2023-04-07T01:02:01.866Z,96889.63
2023-04-07T01:04:43.116Z,96881.53
2023-04-07T01:07:16.022Z,96879.13
2023-04-07T01:10:06.571Z,96875.91
2023-04-07T01:12:54.569Z,96866.09
2023-04-07T01:15:24.249Z,96866.75
2023-04-07T01:17:59.445Z,96865.53
2023-04-07T01:20:27.118Z,96868.72
2023-04-07T01:22:56.287Z,96873.94
2023-04-07T01:25:30.330Z,96863.47
2023-04-07T01:28:05.718Z,96860.63
2023-04-07T01:30:34.399Z,96858.34
2023-04-07T01:33:02.685Z,96851.66
2023-04-07T01:35:32.215Z,96850.78
2023-04-07T01:38:00.423Z,96849.19
2023-04-07T01:40:29.209Z,96857.28
2023-04-07T01:42:57.840Z,96852.22
2023-04-07T01:45:26.530Z,96856.31
2023-04-07T01:47:54.280Z,96853.25
2023-04-07T01:50:21.952Z,96851.88
2023-04-07T01:52:49.059Z,96845.25
2023-04-07T01:55:15.894Z,96839.56
2023-04-07T01:57:42.287Z,96844.38
2023-04-07T02:00:09.105Z,96845.09
2023-04-07T02:02:38.695Z,96849.13
2023-04-07T02:05:08.852Z,96849.88
2023-04-07T02:07:42.808Z,96849.47
2023-04-07T02:10:13.348Z,96840.56
2023-04-07T02:12:41.406Z,96842.97
2023-04-07T02:15:11.431Z,96838.50
2023-04-07T02:17:40.258Z,96839.69
2023-04-07T02:20:11.686Z,96840.25
2023-04-07T02:22:42.634Z,96832.38
2023-04-07T02:25:30.259Z,96832.38
2023-04-07T02:27:58.899Z,96833.84
2023-04-07T02:30:26.289Z,96831.22
2023-04-07T02:32:53.526Z,96825.56
2023-04-07T02:35:20.401Z,96827.72
2023-04-07T02:37:47.312Z,96826.50
2023-04-07T02:40:13.934Z,96823.94
2023-04-07T02:42:40.714Z,96823.94
2023-04-07T02:45:08.626Z,96813.44
2023-04-07T02:47:35.380Z,96813.44
2023-04-07T02:50:01.925Z,96815.28
2023-04-07T02:52:28.371Z,96808.34
2023-04-07T02:54:55.024Z,96810.50
2023-04-07T02:57:21.510Z,96806.84
2023-04-07T02:59:48.049Z,96802.63
2023-04-07T03:02:14.525Z,96808.34
2023-04-07T03:04:41.493Z,96801.69
2023-04-07T03:07:07.939Z,96800.09
2023-04-07T03:09:34.990Z,96809.22
2023-04-07T03:12:02.165Z,96799.75
2023-04-07T03:14:28.665Z,96795.22
2023-04-07T03:16:56.441Z,96795.22
2023-04-07T03:19:22.930Z,96789.97
2023-04-07T03:21:49.359Z,96790.41
2023-04-07T03:24:15.809Z,96791.56
2023-04-07T03:26:42.167Z,96783.47
2023-04-07T03:29:08.637Z,96781.50
2023-04-07T03:31:35.205Z,96786.75
2023-04-07T03:34:01.737Z,96788.38
2023-04-07T03:36:28.386Z,96788.81
2023-04-07T03:38:54.818Z,96780.22
2023-04-07T03:41:21.298Z,96783.28
2023-04-07T03:43:47.712Z,96778.03
2023-04-07T03:46:14.172Z,96780.53
2023-04-07T03:48:40.840Z,96776.44
2023-04-07T03:51:07.458Z,96778.50
2023-04-07T03:53:33.832Z,96784.41
2023-04-07T03:56:00.949Z,96773.25
2023-04-07T03:58:27.689Z,96774.41
2023-04-07T04:00:54.083Z,96763.19
2023-04-07T04:03:20.857Z,96766.13
2023-04-07T04:05:47.386Z,96761.69
2023-04-07T04:08:13.858Z,96760.44
2023-04-07T04:10:40.562Z,96753.38
2023-04-07T04:13:07.986Z,96755.19
2023-04-07T04:15:34.433Z,96749.94
2023-04-07T04:18:01.181Z,96749.50
2023-04-07T04:20:27.644Z,96749.50
2023-04-07T04:22:54.098Z,96748.72
2023-04-07T04:25:20.882Z,96748.13
2023-04-07T04:27:47.321Z,96747.19
2023-04-07T04:30:13.870Z,96747.66
2023-04-07T04:32:40.965Z,96750.56
2023-04-07T04:35:07.764Z,96752.38
2023-04-07T04:37:34.717Z,96747.81
2023-04-07T04:40:01.209Z,96757.84
2023-04-07T04:42:28.093Z,96752.16
2023-04-07T04:44:54.837Z,96749.09
2023-04-07T04:47:21.502Z,96742.03
2023-04-07T04:49:48.029Z,96737.25
2023-04-07T04:52:14.435Z,96747.94
2023-04-07T04:54:40.858Z,96744.31
2023-04-07T04:57:07.238Z,96748.53
2023-04-07T04:59:34.072Z,96756.97
2023-04-07T05:02:00.648Z,96744.91
2023-04-07T05:04:28.381Z,96749.91
2023-04-07T05:06:55.083Z,96748.66
2023-04-07T05:09:21.536Z,96754.50
2023-04-07T05:11:48.103Z,96753.31
2023-04-07T05:14:14.568Z,96753.78
2023-04-07T05:16:41.337Z,96749.69
2023-04-07T05:19:07.861Z,96745.59
2023-04-07T05:21:34.199Z,96755.06
2023-04-07T05:24:00.634Z,96749.59
2023-04-07T05:26:27.127Z,96752.44
2023-04-07T05:28:53.646Z,96755.28
2023-04-07T05:31:20.284Z,96754.03
2023-04-07T05:33:46.829Z,96765.34
2023-04-07T05:36:13.321Z,96765.69
2023-04-07T05:38:39.707Z,96769.09
2023-04-07T05:41:06.282Z,96770.63
2023-04-07T05:43:32.677Z,96773.97
2023-04-07T05:45:59.149Z,96776.34
2023-04-07T05:48:25.653Z,96770.66
2023-04-07T05:50:52.172Z,96774.22
2023-04-07T05:53:18.675Z,96776.38
2023-04-07T05:55:45.119Z,96778.50
2023-04-07T05:58:11.499Z,96777.22
2023-04-07T06:00:37.913Z,96781.13
2023-04-07T06:03:04.354Z,96769.47
2023-04-07T06:05:31.193Z,96770.28
2023-04-07T06:07:57.728Z,96771.78
2023-04-07T06:10:24.165Z,96767.69
2023-04-07T06:12:50.543Z,96769.63
2023-04-07T06:15:17.229Z,96766.44
2023-04-07T06:17:45.802Z,96768.97
2023-04-07T06:20:12.550Z,96769.53
2023-04-07T06:22:39.172Z,96765.88
2023-04-07T06:25:06.956Z,96766.22
2023-04-07T06:27:33.460Z,96764.50
2023-04-07T06:29:59.895Z,96760.41
2023-04-07T06:32:26.493Z,96762.78
2023-04-07T06:34:53.029Z,96763.69
2023-04-07T06:37:19.766Z,96763.50
2023-04-07T06:39:46.184Z,96768.63
2023-04-07T06:42:12.672Z,96765.53
2023-04-07T06:44:39.055Z,96771.59
2023-04-07T06:47:05.446Z,96760.63
2023-04-07T06:49:31.832Z,96773.81
2023-04-07T06:51:58.225Z,96764.22
2023-04-07T06:54:24.900Z,96772.28
2023-04-07T06:56:53.474Z,96773.94
2023-04-07T06:59:20.604Z,96779.66
2023-04-07T07:01:47.747Z,96773.78
2023-04-07T07:04:14.651Z,96777.91
2023-04-07T07:06:41.290Z,96776.78
2023-04-07T07:09:07.761Z,96768.78
2023-04-07T07:11:34.678Z,96769.19
2023-04-07T07:14:01.147Z,96771.19
2023-04-07T07:16:28.835Z,96773.13
2023-04-07T07:18:55.421Z,96767.59
2023-04-07T07:21:21.807Z,96775.41
2023-04-07T07:23:48.553Z,96780.66
2023-04-07T07:26:15.430Z,96782.59
2023-04-07T07:28:41.988Z,96786.75
2023-04-07T07:31:15.660Z,96768.84
2023-04-07T07:33:44.076Z,96775.16
2023-04-07T07:36:10.876Z,96785.00
2023-04-07T07:38:37.890Z,96789.47
2023-04-07T07:41:04.488Z,96780.28
2023-04-07T07:43:30.968Z,96777.63
2023-04-07T07:45:57.375Z,96777.38
2023-04-07T07:48:23.723Z,96778.13
2023-04-07T07:50:51.869Z,96774.75
2023-04-07T07:53:19.036Z,96776.31
2023-04-07T07:55:46.953Z,96786.63
2023-04-07T07:58:13.394Z,96778.81
2023-04-07T08:00:39.873Z,96779.25
2023-04-07T08:03:06.437Z,96788.53
2023-04-07T08:05:32.878Z,96783.28
2023-04-07T08:08:00.092Z,96787.53
2023-04-07T08:10:26.546Z,96788.22
2023-04-07T08:12:52.944Z,96790.91
2023-04-07T08:15:19.380Z,96797.44
2023-04-07T08:17:45.758Z,96794.44
2023-04-07T08:20:12.444Z,96796.75
2023-04-07T08:22:38.886Z,96801.63
2023-04-07T08:25:05.557Z,96793.59
2023-04-07T08:27:32.016Z,96798.00
2023-04-07T08:30:00.739Z,96779.97
2023-04-07T08:32:35.376Z,96782.16
2023-04-07T08:35:02.040Z,96794.03
2023-04-07T08:37:28.596Z,96794.56
2023-04-07T08:39:55.230Z,96794.53
2023-04-07T08:42:27.580Z,96787.84
2023-04-07T08:44:56.815Z,96799.00
2023-04-07T08:47:25.866Z,96791.00
2023-04-07T08:49:53.185Z,96795.97
2023-04-07T08:52:23.562Z,96793.50
2023-04-07T08:54:50.377Z,96783.59
2023-04-07T08:57:18.106Z,96792.88
2023-04-07T08:59:47.680Z,96797.28
2023-04-07T09:02:15.263Z,96794.69
2023-04-07T09:04:44.020Z,96793.09
2023-04-07T09:07:10.424Z,96788.56
2023-04-07T09:09:37.093Z,96795.69
2023-04-07T09:12:03.661Z,96790.34
2023-04-07T09:14:33.087Z,96796.06
2023-04-07T09:17:00.505Z,96795.38
2023-04-07T09:19:27.586Z,96795.25
2023-04-07T09:21:53.989Z,96795.16
2023-04-07T09:24:25.781Z,96798.19
2023-04-07T09:27:18.784Z,96790.03
2023-04-07T09:29:47.588Z,96792.00
2023-04-07T09:32:38.742Z,96785.81
2023-04-07T09:35:05.705Z,96793.41
2023-04-07T09:37:32.548Z,96793.69
2023-04-07T09:39:58.961Z,96792.59
2023-04-07T09:42:26.772Z,96790.88
2023-04-07T09:44:53.337Z,96798.50
2023-04-07T09:47:27.749Z,96789.78
2023-04-07T09:49:55.273Z,96788.50
2023-04-07T09:52:53.364Z,96779.75
2023-04-07T09:55:24.316Z,96770.28
2023-04-07T09:57:51.567Z,96780.94
2023-04-07T10:00:18.550Z,96780.25
2023-04-07T10:02:45.656Z,96780.84
2023-04-07T10:05:12.311Z,96773.19
2023-04-07T10:07:40.883Z,96771.56
2023-04-07T10:10:08.943Z,96765.28
2023-04-07T10:12:37.520Z,96771.69
2023-04-07T10:15:04.912Z,96771.59
2023-04-07T10:17:32.630Z,96770.25
2023-04-07T10:20:00.224Z,96767.47
2023-04-07T10:22:28.880Z,96775.00
2023-04-07T10:25:11.156Z,96774.16
2023-04-07T10:27:50.020Z,96769.28
2023-04-07T10:30:28.789Z,96763.53
2023-04-07T10:32:55.583Z,96771.47
2023-04-07T10:35:22.929Z,96777.00
2023-04-07T10:38:08.100Z,96775.88
2023-04-07T10:40:35.850Z,96773.38
2023-04-07T10:43:02.791Z,96763.66
2023-04-07T10:45:49.247Z,96761.31
2023-04-07T10:48:17.283Z,96760.72
2023-04-07T10:50:46.050Z,96765.13
2023-04-07T10:53:14.294Z,96768.91
2023-04-07T10:55:43.646Z,96770.63
2023-04-07T10:58:32.781Z,96769.38
2023-04-07T11:01:11.777Z,96770.53
2023-04-07T11:03:40.879Z,96770.53
2023-04-07T11:06:09.960Z,96781.41
2023-04-07T11:08:45.681Z,96786.31
2023-04-07T11:11:16.091Z,96776.91
2023-04-07T11:13:48.374Z,96784.56
2023-04-07T11:16:17.443Z,96777.88
2023-04-07T11:18:45.919Z,96776.97
2023-04-07T11:21:12.281Z,96781.91
2023-04-07T11:23:42.833Z,96788.25
2023-04-07T11:26:11.514Z,96782.28
2023-04-07T11:28:49.560Z,96788.34
2023-04-07T11:31:23.419Z,96792.88
2023-04-07T11:33:59.586Z,96795.25
2023-04-07T11:36:41.538Z,96793.44
2023-04-07T11:39:33.629Z,96799.03
2023-04-07T11:42:00.010Z,96799.34
2023-04-07T11:44:26.788Z,96804.16
2023-04-07T11:46:58.264Z,96809.97
2023-04-07T11:49:28.125Z,96814.97
2023-04-07T11:52:06.763Z,96818.84
2023-04-07T11:55:00.308Z,96831.22
2023-04-07T11:57:28.168Z,96836.13
2023-04-07T12:00:07.106Z,96830.47
2023-04-07T12:02:34.613Z,96829.03
2023-04-07T12:05:01.794Z,96834.31
2023-04-07T12:07:28.428Z,96840.53
2023-04-07T12:09:55.441Z,96848.41
2023-04-07T12:12:29.674Z,96844.06
2023-04-07T12:14:56.721Z,96843.59
2023-04-07T12:17:24.260Z,96845.28
2023-04-07T12:19:50.862Z,96852.72
2023-04-07T12:22:17.306Z,96845.63
2023-04-07T12:24:43.777Z,96850.19
2023-04-07T12:27:11.019Z,96854.19
2023-04-07T12:29:37.492Z,96849.47
2023-04-07T12:32:07.060Z,96846.47
2023-04-07T12:34:34.480Z,96846.31
2023-04-07T12:37:01.214Z,96841.84
2023-04-07T12:39:27.748Z,96844.13
2023-04-07T12:41:54.291Z,96840.91
2023-04-07T12:44:20.708Z,96830.94
2023-04-07T12:46:47.155Z,96834.47
2023-04-07T12:49:13.673Z,96827.91
2023-04-07T12:51:40.458Z,96830.66
2023-04-07T12:54:07.171Z,96824.75
2023-04-07T12:56:33.684Z,96828.91
2023-04-07T12:59:00.308Z,96830.16
2023-04-07T13:01:27.117Z,96820.28
2023-04-07T13:03:54.187Z,96815.25
2023-04-07T13:06:20.857Z,96820.63
2023-04-07T13:08:47.521Z,96822.13
2023-04-07T13:11:13.966Z,96814.66
2023-04-07T13:13:40.339Z,96821.06
2023-04-07T13:16:06.814Z,96814.31
2023-04-07T13:18:33.466Z,96821.25
2023-04-07T13:21:33.735Z,96817.59
2023-04-07T13:23:46.679Z,96818.84
2023-04-07T13:26:13.192Z,96827.66
2023-04-07T13:28:40.123Z,96828.53
2023-04-07T13:31:07.510Z,96825.16
2023-04-07T13:33:34.957Z,96825.50
2023-04-07T13:36:01.824Z,96828.34
2023-04-07T13:38:28.276Z,96826.25
2023-04-07T13:40:54.846Z,96827.88
2023-04-07T13:43:21.488Z,96833.34
2023-04-07T13:45:48.660Z,96826.06
2023-04-07T13:48:15.787Z,96830.06
2023-04-07T13:50:42.362Z,96828.75
2023-04-07T13:53:08.822Z,96828.75
2023-04-07T13:55:35.297Z,96834.72
2023-04-07T13:58:01.993Z,96837.47
2023-04-07T14:00:28.474Z,96831.19
2023-04-07T14:02:56.176Z,96838.81
2023-04-07T14:05:23.315Z,96827.28
2023-04-07T14:07:50.952Z,96836.34
2023-04-07T14:10:17.393Z,96841.72
2023-04-07T14:12:43.895Z,96840.31
2023-04-07T14:15:10.580Z,96834.91
2023-04-07T14:17:37.545Z,96831.78
2023-04-07T14:20:04.436Z,96836.56
2023-04-07T14:22:30.903Z,96839.03
2023-04-07T14:24:57.548Z,96839.03
2023-04-07T14:27:23.984Z,96842.22
2023-04-07T14:29:50.466Z,96836.94
2023-04-07T14:32:17.125Z,96836.94
2023-04-07T14:34:43.611Z,96841.72
2023-04-07T14:37:10.316Z,96836.47
2023-04-07T14:39:37.272Z,96841.34
2023-04-07T14:42:04.604Z,96834.53
2023-04-07T14:44:31.673Z,96838.88
2023-04-07T14:46:58.134Z,96836.22
2023-04-07T14:49:28.215Z,96838.53
2023-04-07T14:51:54.870Z,96836.91
2023-04-07T14:54:21.700Z,96835.81
2023-04-07T14:56:48.214Z,96838.75
2023-04-07T14:59:14.858Z,96835.56
2023-04-07T15:01:41.370Z,96836.72
2023-04-07T15:04:08.036Z,96842.31
2023-04-07T15:06:34.519Z,96836.75
2023-04-07T15:09:01.173Z,96844.19
2023-04-07T15:11:27.663Z,96835.47
2023-04-07T15:13:54.248Z,96847.53
2023-04-07T15:16:20.660Z,96846.19
2023-04-07T15:18:48.463Z,96850.66
2023-04-07T15:21:15.826Z,96845.13
2023-04-07T15:23:42.484Z,96848.28
2023-04-07T15:26:10.108Z,96846.56
2023-04-07T15:28:36.913Z,96849.47
2023-04-07T15:31:08.160Z,96849.63
2023-04-07T15:33:36.192Z,96851.81
2023-04-07T15:36:03.570Z,96858.78
2023-04-07T15:38:30.130Z,96855.94
2023-04-07T15:40:56.672Z,96859.34
2023-04-07T15:43:23.308Z,96864.13
2023-04-07T15:45:49.752Z,96862.03
2023-04-07T15:48:16.204Z,96867.88
2023-04-07T15:50:42.652Z,96866.28
2023-04-07T15:53:09.442Z,96872.59
2023-04-07T15:55:36.826Z,96873.41
2023-04-07T15:58:03.835Z,96873.31
2023-04-07T16:00:33.752Z,96880.34
2023-04-07T16:03:02.420Z,96876.06
2023-04-07T16:05:29.418Z,96880.78
2023-04-07T16:07:56.437Z,96893.47
2023-04-07T16:10:22.979Z,96885.50
2023-04-07T16:12:49.372Z,96884.34
2023-04-07T16:15:22.556Z,96893.28
2023-04-07T16:17:52.641Z,96897.69
2023-04-07T16:20:19.175Z,96897.34
2023-04-07T16:22:50.297Z,96895.69
2023-04-07T16:25:18.032Z,96904.56
2023-04-07T16:27:45.061Z,96907.63
2023-04-07T16:30:13.697Z,96905.50
2023-04-07T16:32:43.202Z,96912.00
2023-04-07T16:35:16.441Z,96907.38
2023-04-07T16:37:45.754Z,96916.53
2023-04-07T16:40:12.839Z,96911.75
2023-04-07T16:42:39.476Z,96920.38
2023-04-07T16:45:06.432Z,96926.03
2023-04-07T16:47:32.897Z,96918.75
2023-04-07T16:49:59.639Z,96923.03
2023-04-07T16:52:26.861Z,96927.22
2023-04-07T16:54:53.488Z,96925.91
2023-04-07T16:57:20.075Z,96932.56
2023-04-07T16:59:47.118Z,96934.00
2023-04-07T17:02:16.562Z,96931.53
2023-04-07T17:04:43.786Z,96947.38
2023-04-07T17:07:11.013Z,96935.69
2023-04-07T17:09:37.600Z,96952.00
2023-04-07T17:12:04.464Z,96953.41
2023-04-07T17:14:30.850Z,96948.78
2023-04-07T17:16:57.979Z,96952.78
2023-04-07T17:19:24.373Z,96959.00
2023-04-07T17:21:50.932Z,96962.19
2023-04-07T17:24:17.385Z,96962.03
2023-04-07T17:26:46.520Z,96967.97
2023-04-07T17:29:13.842Z,96972.00
2023-04-07T17:31:40.620Z,96971.34
2023-04-07T17:34:07.520Z,96977.03
2023-04-07T17:36:34.193Z,96977.31
2023-04-07T17:39:01.105Z,96978.91
2023-04-07T17:41:28.417Z,96979.47
2023-04-07T17:43:54.936Z,96976.03
2023-04-07T17:46:22.516Z,96983.59
2023-04-07T17:48:50.707Z,96984.72
2023-04-07T17:51:17.687Z,96976.72
2023-04-07T17:53:44.095Z,96987.72
2023-04-07T17:56:10.659Z,96995.63
2023-04-07T17:58:37.068Z,96998.59
2023-04-07T18:01:04.196Z,96992.72
2023-04-07T18:03:30.800Z,96998.91
2023-04-07T18:05:57.293Z,97006.00
2023-04-07T18:08:24.914Z,97011.97
2023-04-07T18:10:52.220Z,97007.72
2023-04-07T18:13:18.908Z,97017.00
2023-04-07T18:15:45.419Z,97025.47
2023-04-07T18:18:12.171Z,97031.19
2023-04-07T18:20:38.872Z,97032.81
2023-04-07T18:23:05.644Z,97035.66
2023-04-07T18:25:32.176Z,97038.06
2023-04-07T18:27:59.011Z,97038.97
2023-04-07T18:30:25.460Z,97046.97
2023-04-07T18:32:51.874Z,97056.59
2023-04-07T18:35:18.402Z,97060.72
2023-04-07T18:37:44.840Z,97060.25
2023-04-07T18:40:11.723Z,97068.75
2023-04-07T18:42:38.174Z,97078.47
2023-04-07T18:45:04.925Z,97082.03
2023-04-07T18:47:31.541Z,97081.53
2023-04-07T18:49:58.505Z,97082.25
2023-04-07T18:52:25.995Z,97075.38
2023-04-07T18:54:52.722Z,97085.78
2023-04-07T18:57:19.141Z,97092.56
2023-04-07T18:59:45.944Z,97084.88
2023-04-07T19:02:12.581Z,97086.25
2023-04-07T19:04:39.306Z,97098.72
2023-04-07T19:07:05.857Z,97097.13
2023-04-07T19:09:33.175Z,97098.63
2023-04-07T19:11:59.639Z,97102.06
2023-04-07T19:14:26.118Z,97107.75
2023-04-07T19:16:52.825Z,97112.91
2023-04-07T19:19:19.386Z,97111.78
2023-04-07T19:21:45.843Z,97114.72
2023-04-07T19:24:12.277Z,97106.72
2023-04-07T19:26:38.766Z,97113.78
2023-04-07T19:29:05.213Z,97113.44
2023-04-07T19:31:32.178Z,97123.16
2023-04-07T19:33:58.746Z,97121.31
2023-04-07T19:36:26.487Z,97121.13
2023-04-07T19:38:52.967Z,97125.19
2023-04-07T19:41:19.479Z,97133.34
2023-04-07T19:43:45.957Z,97129.66
2023-04-07T19:46:12.424Z,97131.50
2023-04-07T19:48:39.995Z,97133.78
2023-04-07T19:51:07.512Z,97136.06
2023-04-07T19:53:34.123Z,97141.44
2023-04-07T19:56:01.822Z,97142.03
2023-04-07T19:58:28.174Z,97137.78
2023-04-07T20:00:55.055Z,97138.94
2023-04-07T20:03:22.006Z,97137.78
2023-04-07T20:05:48.806Z,97139.84
2023-04-07T20:08:15.311Z,97141.00
2023-04-07T20:10:41.752Z,97150.19
2023-04-07T20:13:09.506Z,97143.09
2023-04-07T20:15:36.222Z,97149.28
2023-04-07T20:18:03.508Z,97148.25
2023-04-07T20:20:29.957Z,97146.88
2023-04-07T20:22:56.398Z,97150.31
2023-04-07T20:25:22.915Z,97151.31
2023-04-07T20:27:49.987Z,97154.97
2023-04-07T20:30:16.489Z,97151.66
2023-04-07T20:32:43.422Z,97151.31
2023-04-07T20:35:10.815Z,97159.34
2023-04-07T20:37:37.237Z,97154.97
2023-04-07T20:40:04.121Z,97154.56
2023-04-07T20:42:30.752Z,97158.63
2023-04-07T20:45:02.339Z,97155.44
2023-04-07T20:47:29.629Z,97152.81
2023-04-07T20:49:56.032Z,97155.88
2023-04-07T20:52:22.485Z,97157.50
2023-04-07T20:54:49.468Z,97156.78
2023-04-07T20:57:16.159Z,97160.78
2023-04-07T20:59:42.547Z,97161.34
2023-04-07T21:02:09.111Z,97163.84
2023-04-07T21:04:36.792Z,97159.91
2023-04-07T21:07:03.227Z,97159.03
2023-04-07T21:09:29.773Z,97155.66
2023-04-07T21:11:56.247Z,97162.06
2023-04-07T21:14:22.641Z,97166.94
2023-04-07T21:16:49.061Z,97165.91
2023-04-07T21:19:15.875Z,97166.94
2023-04-07T21:21:42.283Z,97166.94
2023-04-07T21:24:08.672Z,97168.59
2023-04-07T21:26:35.256Z,97173.69
2023-04-07T21:29:01.677Z,97170.66
2023-04-07T21:31:28.427Z,97172.03
2023-04-07T21:33:54.992Z,97167.41
2023-04-07T21:36:22.645Z,97171.19
2023-04-07T21:38:51.878Z,97181.69
2023-04-07T21:41:18.460Z,97174.63
2023-04-07T21:43:45.113Z,97168.47
2023-04-07T21:46:11.549Z,97175.56
2023-04-07T21:48:37.952Z,97168.38
2023-04-07T21:51:04.474Z,97165.16
2023-04-07T21:53:31.947Z,97163.13
2023-04-07T21:55:58.433Z,97169.28
2023-04-07T21:58:25.178Z,97167.59
2023-04-07T22:00:52.925Z,97175.25
2023-04-07T22:03:19.544Z,97178.91
2023-04-07T22:05:48.998Z,97171.97
2023-04-07T22:08:15.607Z,97177.22
2023-04-07T22:10:42.147Z,97172.38
2023-04-07T22:13:09.290Z,97179.19
2023-04-07T22:15:35.769Z,97170.69
2023-04-07T22:18:02.547Z,97172.75
2023-04-07T22:20:29.052Z,97172.44
2023-04-07T22:22:57.346Z,97170.44
2023-04-07T22:25:24.575Z,97171.16
2023-04-07T22:27:53.928Z,97163.13
2023-04-07T22:30:20.788Z,97174.38
2023-04-07T22:32:48.025Z,97165.75
2023-04-07T22:35:14.880Z,97166.78
2023-04-07T22:37:41.372Z,97177.72
2023-04-07T22:40:08.936Z,97174.75
2023-04-07T22:42:35.894Z,97174.97
2023-04-07T22:45:02.263Z,97183.66
2023-04-07T22:47:28.825Z,97177.03
2023-04-07T22:49:55.345Z,97177.91
2023-04-07T22:52:21.977Z,97185.47
2023-04-07T22:54:48.502Z,97179.53
2023-04-07T22:57:14.937Z,97182.72
2023-04-07T22:59:41.502Z,97189.59
2023-04-07T23:02:07.984Z,97194.41
2023-04-07T23:04:34.478Z,97186.38
2023-04-07T23:07:01.249Z,97186.38
2023-04-07T23:09:27.682Z,97191.19
2023-04-07T23:11:54.050Z,97189.25
2023-04-07T23:14:20.571Z,97194.91
2023-04-07T23:16:47.067Z,97192.81
2023-04-07T23:19:15.739Z,97193.25
2023-04-07T23:21:43.018Z,97194.25
2023-04-07T23:24:09.770Z,97192.81
2023-04-07T23:26:36.299Z,97192.13
2023-04-07T23:29:03.618Z,97193.97
2023-04-07T23:31:30.112Z,97197.25
2023-04-07T23:33:58.897Z,97189.50
2023-04-07T23:36:27.175Z,97192.72
2023-04-07T23:38:56.091Z,97191.78
2023-04-07T23:41:22.910Z,97189.94
2023-04-07T23:43:49.359Z,97194.63
2023-04-07T23:46:15.934Z,97188.78
2023-04-07T23:48:42.463Z,97188.50
2023-04-07T23:51:08.891Z,97191.84
2023-04-07T23:53:35.284Z,97198.81
2023-04-07T23:56:01.705Z,97195.41
2023-04-07T23:58:28.102Z,97185.78
